METAR Data
IDs: Format: Raw Decoded Include TAF

Data at: 1405 UTC 25 Jun 2019

KBNA 251353Z VRB03KT 10SM FEW027 BKN250 26/19 A3006 RMK AO2 SLP174 T02610194

KBNA 251120Z 2512/2612 34004KT P6SM SCT026 BKN250